Terminal Aerodrome Forecast
Issued by NWS

Home | Current Version | Previous Version | Text Only | Print | Product List | Glossary On
Versions: 1 2 3 4 5 6 7 8 9 10 11 12 13
000
FTUS42 KMLB 310500
TAFISM
TAF
KISM 310539Z 3106/0106 00000KT P6SM BKN110
     FM310800 00000KT P6SM SCT250
     FM311400 12006KT P6SM FEW030 SCT250
     FM312300 12003KT P6SM FEW250
      AMD NOT SKED TIL 311100=

USA.gov is the U.S. government's official web portal to all federal, state and local government web resources and services.